sensor_id;sensor_type;location;lat;lon;timestamp;temperature;humidity
37594;DHT22;23441;50.856;6.076;2023-11-21T00:00:44;8.00;99.90
37594;DHT22;23441;50.856;6.076;2023-11-21T00:03:31;8.00;99.90
37594;DHT22;23441;50.856;6.076;2023-11-21T00:06:17;8.00;99.90
37594;DHT22;23441;50.856;6.076;2023-11-21T00:09:03;8.00;99.90
37594;DHT22;23441;50.856;6.076;2023-11-21T00:11:50;8.00;99.90
37594;DHT22;23441;50.856;6.076;2023-11-21T00:14:37;7.90;99.90
37594;DHT22;23441;50.856;6.076;2023-11-21T00:17:23;7.80;99.90
37594;DHT22;23441;50.856;6.076;2023-11-21T00:20:10;7.80;99.90
37594;DHT22;23441;50.856;6.076;2023-11-21T00:22:58;7.80;99.90
37594;DHT22;23441;50.856;6.076;2023-11-21T00:25:45;7.80;99.90
37594;DHT22;23441;50.856;6.076;2023-11-21T00:28:31;7.80;99.90
37594;DHT22;23441;50.856;6.076;2023-11-21T00:31:17;7.70;99.90
37594;DHT22;23441;50.856;6.076;2023-11-21T00:34:03;7.80;99.90
37594;DHT22;23441;50.856;6.076;2023-11-21T00:36:50;7.70;99.90
37594;DHT22;23441;50.856;6.076;2023-11-21T00:39:37;7.70;99.90
37594;DHT22;23441;50.856;6.076;2023-11-21T00:42:23;7.70;99.90
37594;DHT22;23441;50.856;6.076;2023-11-21T00:45:09;7.70;99.90
37594;DHT22;23441;50.856;6.076;2023-11-21T00:47:56;7.80;99.90
37594;DHT22;23441;50.856;6.076;2023-11-21T00:50:44;7.80;99.90
37594;DHT22;23441;50.856;6.076;2023-11-21T00:53:29;7.80;99.90
37594;DHT22;23441;50.856;6.076;2023-11-21T00:56:15;7.90;99.90
37594;DHT22;23441;50.856;6.076;2023-11-21T00:59:01;7.90;99.90
37594;DHT22;23441;50.856;6.076;2023-11-21T01:01:47;7.90;99.90
37594;DHT22;23441;50.856;6.076;2023-11-21T01:04:34;8.00;99.90
37594;DHT22;23441;50.856;6.076;2023-11-21T01:07:20;8.00;99.90
37594;DHT22;23441;50.856;6.076;2023-11-21T01:10:06;8.00;99.90
37594;DHT22;23441;50.856;6.076;2023-11-21T01:12:53;8.00;99.90
37594;DHT22;23441;50.856;6.076;2023-11-21T01:15:39;8.00;99.90
37594;DHT22;23441;50.856;6.076;2023-11-21T01:18:25;8.00;99.90
37594;DHT22;23441;50.856;6.076;2023-11-21T01:21:11;8.00;99.90
37594;DHT22;23441;50.856;6.076;2023-11-21T01:23:57;7.90;99.90
37594;DHT22;23441;50.856;6.076;2023-11-21T01:26:43;7.90;99.90
37594;DHT22;23441;50.856;6.076;2023-11-21T01:29:32;7.90;99.90
37594;DHT22;23441;50.856;6.076;2023-11-21T01:32:18;7.90;99.90
37594;DHT22;23441;50.856;6.076;2023-11-21T01:35:04;7.90;99.90
37594;DHT22;23441;50.856;6.076;2023-11-21T01:37:51;7.90;99.90
37594;DHT22;23441;50.856;6.076;2023-11-21T01:40:37;7.90;99.90
37594;DHT22;23441;50.856;6.076;2023-11-21T01:43:23;7.90;99.90
37594;DHT22;23441;50.856;6.076;2023-11-21T01:46:10;7.80;99.90
37594;DHT22;23441;50.856;6.076;2023-11-21T01:48:55;7.90;99.90
37594;DHT22;23441;50.856;6.076;2023-11-21T01:51:43;7.90;99.90
37594;DHT22;23441;50.856;6.076;2023-11-21T01:54:31;7.90;99.90
37594;DHT22;23441;50.856;6.076;2023-11-21T01:57:18;8.00;99.90
37594;DHT22;23441;50.856;6.076;2023-11-21T02:00:05;8.00;99.90
37594;DHT22;23441;50.856;6.076;2023-11-21T02:03:01;8.00;99.90
37594;DHT22;23441;50.856;6.076;2023-11-21T02:05:47;8.00;99.90
37594;DHT22;23441;50.856;6.076;2023-11-21T02:08:33;8.00;99.90
37594;DHT22;23441;50.856;6.076;2023-11-21T02:11:19;8.00;99.90
37594;DHT22;23441;50.856;6.076;2023-11-21T02:14:05;8.00;99.90
37594;DHT22;23441;50.856;6.076;2023-11-21T02:16:54;8.00;99.90
37594;DHT22;23441;50.856;6.076;2023-11-21T02:19:40;7.90;99.90
37594;DHT22;23441;50.856;6.076;2023-11-21T02:22:30;7.90;99.90
37594;DHT22;23441;50.856;6.076;2023-11-21T02:25:16;8.00;99.90
37594;DHT22;23441;50.856;6.076;2023-11-21T02:28:04;8.00;99.90
37594;DHT22;23441;50.856;6.076;2023-11-21T02:30:50;8.00;99.90
37594;DHT22;23441;50.856;6.076;2023-11-21T02:33:41;8.00;99.90
37594;DHT22;23441;50.856;6.076;2023-11-21T02:36:27;8.00;99.90
37594;DHT22;23441;50.856;6.076;2023-11-21T02:39:13;8.00;99.90
37594;DHT22;23441;50.856;6.076;2023-11-21T02:41:59;7.90;99.90
37594;DHT22;23441;50.856;6.076;2023-11-21T02:44:45;7.90;99.90
37594;DHT22;23441;50.856;6.076;2023-11-21T02:47:31;7.90;99.90
37594;DHT22;23441;50.856;6.076;2023-11-21T02:50:17;7.90;99.90
37594;DHT22;23441;50.856;6.076;2023-11-21T02:53:04;7.90;99.90
37594;DHT22;23441;50.856;6.076;2023-11-21T02:55:53;7.90;99.90
37594;DHT22;23441;50.856;6.076;2023-11-21T02:58:43;7.90;99.90
37594;DHT22;23441;50.856;6.076;2023-11-21T03:01:31;7.80;99.90
37594;DHT22;23441;50.856;6.076;2023-11-21T03:04:17;7.80;99.90
37594;DHT22;23441;50.856;6.076;2023-11-21T03:07:03;7.70;99.90
37594;DHT22;23441;50.856;6.076;2023-11-21T03:09:51;7.80;99.90
37594;DHT22;23441;50.856;6.076;2023-11-21T03:12:37;7.80;99.90
37594;DHT22;23441;50.856;6.076;2023-11-21T03:15:23;7.70;99.90
37594;DHT22;23441;50.856;6.076;2023-11-21T03:18:09;7.70;99.90
37594;DHT22;23441;50.856;6.076;2023-11-21T03:20:55;7.70;99.90
37594;DHT22;23441;50.856;6.076;2023-11-21T03:23:41;7.70;99.90
37594;DHT22;23441;50.856;6.076;2023-11-21T03:26:27;7.80;99.90
37594;DHT22;23441;50.856;6.076;2023-11-21T03:29:13;7.80;99.90
37594;DHT22;23441;50.856;6.076;2023-11-21T03:31:59;7.80;99.90
37594;DHT22;23441;50.856;6.076;2023-11-21T03:34:55;7.80;99.90
37594;DHT22;23441;50.856;6.076;2023-11-21T03:37:42;7.90;99.90
37594;DHT22;23441;50.856;6.076;2023-11-21T03:40:29;7.90;99.90
37594;DHT22;23441;50.856;6.076;2023-11-21T03:43:16;7.80;99.90
37594;DHT22;23441;50.856;6.076;2023-11-21T03:46:03;7.80;99.90
37594;DHT22;23441;50.856;6.076;2023-11-21T03:48:49;7.80;99.90
37594;DHT22;23441;50.856;6.076;2023-11-21T03:51:35;7.80;99.90
37594;DHT22;23441;50.856;6.076;2023-11-21T03:54:21;7.80;99.90
37594;DHT22;23441;50.856;6.076;2023-11-21T03:57:07;7.80;99.90
37594;DHT22;23441;50.856;6.076;2023-11-21T03:59:53;7.80;99.90
37594;DHT22;23441;50.856;6.076;2023-11-21T04:02:39;7.90;99.90
37594;DHT22;23441;50.856;6.076;2023-11-21T04:05:26;7.90;99.90
37594;DHT22;23441;50.856;6.076;2023-11-21T04:08:12;7.90;99.90
37594;DHT22;23441;50.856;6.076;2023-11-21T04:10:57;7.90;99.90
37594;DHT22;23441;50.856;6.076;2023-11-21T04:13:43;8.00;99.90
37594;DHT22;23441;50.856;6.076;2023-11-21T04:16:30;8.00;99.90
37594;DHT22;23441;50.856;6.076;2023-11-21T04:19:16;8.00;99.90
37594;DHT22;23441;50.856;6.076;2023-11-21T04:22:02;7.90;99.90
37594;DHT22;23441;50.856;6.076;2023-11-21T04:24:49;8.00;99.90
37594;DHT22;23441;50.856;6.076;2023-11-21T04:27:35;7.90;99.90
37594;DHT22;23441;50.856;6.076;2023-11-21T04:30:21;8.00;99.90
37594;DHT22;23441;50.856;6.076;2023-11-21T04:33:07;8.00;99.90
37594;DHT22;23441;50.856;6.076;2023-11-21T04:35:53;8.00;99.90
37594;DHT22;23441;50.856;6.076;2023-11-21T04:38:39;8.00;99.90
37594;DHT22;23441;50.856;6.076;2023-11-21T04:41:25;8.00;99.90
37594;DHT22;23441;50.856;6.076;2023-11-21T04:44:11;8.00;99.90
37594;DHT22;23441;50.856;6.076;2023-11-21T04:46:57;8.00;99.90
37594;DHT22;23441;50.856;6.076;2023-11-21T04:49:43;8.10;99.90
37594;DHT22;23441;50.856;6.076;2023-11-21T04:52:29;8.00;99.90
37594;DHT22;23441;50.856;6.076;2023-11-21T04:55:15;8.00;99.90
37594;DHT22;23441;50.856;6.076;2023-11-21T04:58:01;8.00;99.90
37594;DHT22;23441;50.856;6.076;2023-11-21T05:00:47;8.00;99.90
37594;DHT22;23441;50.856;6.076;2023-11-21T05:03:33;7.90;99.90
37594;DHT22;23441;50.856;6.076;2023-11-21T05:06:19;7.90;99.90
37594;DHT22;23441;50.856;6.076;2023-11-21T05:09:05;7.90;99.90
37594;DHT22;23441;50.856;6.076;2023-11-21T05:11:51;7.90;99.90
37594;DHT22;23441;50.856;6.076;2023-11-21T05:14:38;7.80;99.90
37594;DHT22;23441;50.856;6.076;2023-11-21T05:17:24;7.80;99.90
37594;DHT22;23441;50.856;6.076;2023-11-21T05:20:11;7.90;99.90
37594;DHT22;23441;50.856;6.076;2023-11-21T05:22:58;7.90;99.90
37594;DHT22;23441;50.856;6.076;2023-11-21T05:25:44;7.90;99.90
37594;DHT22;23441;50.856;6.076;2023-11-21T05:28:31;7.90;99.90
37594;DHT22;23441;50.856;6.076;2023-11-21T05:31:17;7.90;99.90
37594;DHT22;23441;50.856;6.076;2023-11-21T05:34:04;7.90;99.90
37594;DHT22;23441;50.856;6.076;2023-11-21T05:36:50;7.80;99.90
37594;DHT22;23441;50.856;6.076;2023-11-21T05:39:36;7.90;99.90
37594;DHT22;23441;50.856;6.076;2023-11-21T05:42:23;7.90;99.90
37594;DHT22;23441;50.856;6.076;2023-11-21T05:45:09;7.80;99.90
37594;DHT22;23441;50.856;6.076;2023-11-21T05:47:57;7.80;99.90
37594;DHT22;23441;50.856;6.076;2023-11-21T05:50:43;7.90;99.90
37594;DHT22;23441;50.856;6.076;2023-11-21T05:53:29;8.00;99.90
37594;DHT22;23441;50.856;6.076;2023-11-21T05:56:15;8.00;99.90
37594;DHT22;23441;50.856;6.076;2023-11-21T05:59:01;8.00;99.90
37594;DHT22;23441;50.856;6.076;2023-11-21T06:01:47;8.00;99.90
37594;DHT22;23441;50.856;6.076;2023-11-21T06:04:33;8.00;99.90
37594;DHT22;23441;50.856;6.076;2023-11-21T06:07:19;8.00;99.90
37594;DHT22;23441;50.856;6.076;2023-11-21T06:10:05;8.00;99.90
37594;DHT22;23441;50.856;6.076;2023-11-21T06:12:55;8.00;99.90
37594;DHT22;23441;50.856;6.076;2023-11-21T06:15:43;8.00;99.90
37594;DHT22;23441;50.856;6.076;2023-11-21T06:18:29;8.00;99.90
37594;DHT22;23441;50.856;6.076;2023-11-21T06:21:15;7.90;99.90
37594;DHT22;23441;50.856;6.076;2023-11-21T06:24:02;7.90;99.90
37594;DHT22;23441;50.856;6.076;2023-11-21T06:26:48;7.90;99.90
37594;DHT22;23441;50.856;6.076;2023-11-21T06:29:34;7.90;99.90
37594;DHT22;23441;50.856;6.076;2023-11-21T06:32:20;7.90;99.90
37594;DHT22;23441;50.856;6.076;2023-11-21T06:35:08;8.00;99.90
37594;DHT22;23441;50.856;6.076;2023-11-21T06:37:55;7.90;99.90
37594;DHT22;23441;50.856;6.076;2023-11-21T06:40:41;8.00;99.90
37594;DHT22;23441;50.856;6.076;2023-11-21T06:43:27;8.00;99.90
37594;DHT22;23441;50.856;6.076;2023-11-21T06:46:13;7.90;99.90
37594;DHT22;23441;50.856;6.076;2023-11-21T06:49:00;7.90;99.90
37594;DHT22;23441;50.856;6.076;2023-11-21T06:51:46;8.00;99.90
37594;DHT22;23441;50.856;6.076;2023-11-21T06:54:32;8.00;99.90
37594;DHT22;23441;50.856;6.076;2023-11-21T06:57:18;8.00;99.90
37594;DHT22;23441;50.856;6.076;2023-11-21T07:00:05;8.00;99.90
37594;DHT22;23441;50.856;6.076;2023-11-21T07:02:51;8.00;99.90
37594;DHT22;23441;50.856;6.076;2023-11-21T07:05:37;8.10;99.90
37594;DHT22;23441;50.856;6.076;2023-11-21T07:08:23;8.00;99.90
37594;DHT22;23441;50.856;6.076;2023-11-21T07:11:09;8.10;99.90
37594;DHT22;23441;50.856;6.076;2023-11-21T07:13:55;8.00;99.90
37594;DHT22;23441;50.856;6.076;2023-11-21T07:16:42;8.10;99.90
37594;DHT22;23441;50.856;6.076;2023-11-21T07:19:27;8.10;99.90
37594;DHT22;23441;50.856;6.076;2023-11-21T07:22:13;8.10;99.90
37594;DHT22;23441;50.856;6.076;2023-11-21T07:24:59;8.10;99.90
37594;DHT22;23441;50.856;6.076;2023-11-21T07:27:46;8.10;99.90
37594;DHT22;23441;50.856;6.076;2023-11-21T07:30:32;8.20;99.90
37594;DHT22;23441;50.856;6.076;2023-11-21T07:33:18;8.20;99.90
37594;DHT22;23441;50.856;6.076;2023-11-21T07:36:04;8.20;99.90
37594;DHT22;23441;50.856;6.076;2023-11-21T07:38:50;8.20;99.90
37594;DHT22;23441;50.856;6.076;2023-11-21T07:41:36;8.20;99.90
37594;DHT22;23441;50.856;6.076;2023-11-21T07:44:24;8.20;99.90
37594;DHT22;23441;50.856;6.076;2023-11-21T07:47:09;8.30;99.90
37594;DHT22;23441;50.856;6.076;2023-11-21T07:49:55;8.30;99.90
37594;DHT22;23441;50.856;6.076;2023-11-21T07:52:41;8.40;99.90
37594;DHT22;23441;50.856;6.076;2023-11-21T07:55:27;8.40;99.90
37594;DHT22;23441;50.856;6.076;2023-11-21T07:58:13;8.40;99.90
37594;DHT22;23441;50.856;6.076;2023-11-21T08:01:00;8.30;99.90
37594;DHT22;23441;50.856;6.076;2023-11-21T08:03:46;8.50;99.90
37594;DHT22;23441;50.856;6.076;2023-11-21T08:06:32;8.50;99.90
37594;DHT22;23441;50.856;6.076;2023-11-21T08:09:18;8.60;99.90
37594;DHT22;23441;50.856;6.076;2023-11-21T08:12:04;8.60;99.90
37594;DHT22;23441;50.856;6.076;2023-11-21T08:14:50;8.60;99.90
37594;DHT22;23441;50.856;6.076;2023-11-21T08:17:36;8.60;99.90
37594;DHT22;23441;50.856;6.076;2023-11-21T08:20:22;8.70;99.90
37594;DHT22;23441;50.856;6.076;2023-11-21T08:23:10;8.70;99.90
37594;DHT22;23441;50.856;6.076;2023-11-21T08:25:55;8.70;99.90
37594;DHT22;23441;50.856;6.076;2023-11-21T08:28:41;8.70;99.90
37594;DHT22;23441;50.856;6.076;2023-11-21T08:31:27;8.70;99.90
37594;DHT22;23441;50.856;6.076;2023-11-21T08:34:14;8.80;99.90
37594;DHT22;23441;50.856;6.076;2023-11-21T08:37:01;8.80;99.90
37594;DHT22;23441;50.856;6.076;2023-11-21T08:39:47;8.90;99.90
37594;DHT22;23441;50.856;6.076;2023-11-21T08:42:34;8.90;99.90
37594;DHT22;23441;50.856;6.076;2023-11-21T08:45:20;8.90;99.90
37594;DHT22;23441;50.856;6.076;2023-11-21T08:48:07;9.00;99.90
37594;DHT22;23441;50.856;6.076;2023-11-21T08:50:54;9.10;99.90
37594;DHT22;23441;50.856;6.076;2023-11-21T08:53:40;9.20;99.90
37594;DHT22;23441;50.856;6.076;2023-11-21T08:56:26;9.20;99.90
37594;DHT22;23441;50.856;6.076;2023-11-21T08:59:13;9.20;99.90
37594;DHT22;23441;50.856;6.076;2023-11-21T09:02:00;9.30;99.90
37594;DHT22;23441;50.856;6.076;2023-11-21T09:04:46;9.20;99.90
37594;DHT22;23441;50.856;6.076;2023-11-21T09:07:32;9.20;99.90
37594;DHT22;23441;50.856;6.076;2023-11-21T09:10:17;9.30;99.90
37594;DHT22;23441;50.856;6.076;2023-11-21T09:13:03;9.30;99.90
37594;DHT22;23441;50.856;6.076;2023-11-21T09:15:50;9.20;99.90
37594;DHT22;23441;50.856;6.076;2023-11-21T09:18:36;9.30;99.90
37594;DHT22;23441;50.856;6.076;2023-11-21T09:21:22;9.40;99.90
37594;DHT22;23441;50.856;6.076;2023-11-21T09:24:09;9.40;99.90
37594;DHT22;23441;50.856;6.076;2023-11-21T09:26:55;9.50;99.90
37594;DHT22;23441;50.856;6.076;2023-11-21T09:29:41;9.40;99.90
37594;DHT22;23441;50.856;6.076;2023-11-21T09:32:27;9.40;99.90
37594;DHT22;23441;50.856;6.076;2023-11-21T09:35:13;9.50;99.90
37594;DHT22;23441;50.856;6.076;2023-11-21T09:37:59;9.40;99.90
37594;DHT22;23441;50.856;6.076;2023-11-21T09:40:47;9.40;99.90
37594;DHT22;23441;50.856;6.076;2023-11-21T09:43:33;9.40;99.90
37594;DHT22;23441;50.856;6.076;2023-11-21T09:46:21;9.50;99.90
37594;DHT22;23441;50.856;6.076;2023-11-21T09:49:09;9.40;99.90
37594;DHT22;23441;50.856;6.076;2023-11-21T09:51:58;9.50;99.90
37594;DHT22;23441;50.856;6.076;2023-11-21T09:54:50;9.60;99.90
37594;DHT22;23441;50.856;6.076;2023-11-21T09:57:36;9.70;99.90
37594;DHT22;23441;50.856;6.076;2023-11-21T10:00:22;9.70;99.90
37594;DHT22;23441;50.856;6.076;2023-11-21T10:03:13;9.70;99.90
37594;DHT22;23441;50.856;6.076;2023-11-21T10:06:00;9.70;99.90
37594;DHT22;23441;50.856;6.076;2023-11-21T10:08:47;9.80;99.90
37594;DHT22;23441;50.856;6.076;2023-11-21T10:11:36;9.90;99.90
37594;DHT22;23441;50.856;6.076;2023-11-21T10:14:24;9.90;99.90
37594;DHT22;23441;50.856;6.076;2023-11-21T10:17:12;10.00;99.90
37594;DHT22;23441;50.856;6.076;2023-11-21T10:20:02;10.10;99.90
37594;DHT22;23441;50.856;6.076;2023-11-21T10:22:51;10.20;99.90
37594;DHT22;23441;50.856;6.076;2023-11-21T10:25:37;10.20;99.90
37594;DHT22;23441;50.856;6.076;2023-11-21T10:28:23;10.10;99.90
37594;DHT22;23441;50.856;6.076;2023-11-21T10:31:11;10.10;99.90
37594;DHT22;23441;50.856;6.076;2023-11-21T10:34:15;10.20;99.90
37594;DHT22;23441;50.856;6.076;2023-11-21T10:37:11;10.10;99.90
37594;DHT22;23441;50.856;6.076;2023-11-21T10:39:58;10.20;99.90
37594;DHT22;23441;50.856;6.076;2023-11-21T10:42:45;10.20;99.90
37594;DHT22;23441;50.856;6.076;2023-11-21T10:45:31;10.30;99.90
37594;DHT22;23441;50.856;6.076;2023-11-21T10:48:16;10.40;99.90
37594;DHT22;23441;50.856;6.076;2023-11-21T10:51:06;10.60;99.90
37594;DHT22;23441;50.856;6.076;2023-11-21T10:53:53;10.70;99.90
37594;DHT22;23441;50.856;6.076;2023-11-21T10:56:40;10.80;99.90
37594;DHT22;23441;50.856;6.076;2023-11-21T10:59:29;10.90;99.90
37594;DHT22;23441;50.856;6.076;2023-11-21T11:02:24;10.90;99.90
37594;DHT22;23441;50.856;6.076;2023-11-21T11:05:19;10.90;99.90
37594;DHT22;23441;50.856;6.076;2023-11-21T11:08:06;10.60;99.90
37594;DHT22;23441;50.856;6.076;2023-11-21T11:10:53;10.60;99.90
37594;DHT22;23441;50.856;6.076;2023-11-21T11:13:43;10.60;99.90
37594;DHT22;23441;50.856;6.076;2023-11-21T11:16:30;10.70;99.90
37594;DHT22;23441;50.856;6.076;2023-11-21T11:19:16;10.60;99.90
37594;DHT22;23441;50.856;6.076;2023-11-21T11:22:29;10.80;99.90
37594;DHT22;23441;50.856;6.076;2023-11-21T11:25:35;10.90;99.90
37594;DHT22;23441;50.856;6.076;2023-11-21T11:29:05;11.00;99.90
37594;DHT22;23441;50.856;6.076;2023-11-21T11:35:04;10.80;99.90
37594;DHT22;23441;50.856;6.076;2023-11-21T11:37:51;10.60;99.90
37594;DHT22;23441;50.856;6.076;2023-11-21T11:40:48;10.50;99.90
37594;DHT22;23441;50.856;6.076;2023-11-21T11:43:37;10.70;99.90
37594;DHT22;23441;50.856;6.076;2023-11-21T11:46:41;10.70;99.90
37594;DHT22;23441;50.856;6.076;2023-11-21T11:49:28;10.90;99.90
37594;DHT22;23441;50.856;6.076;2023-11-21T11:55:21;10.80;99.90
37594;DHT22;23441;50.856;6.076;2023-11-21T11:58:08;10.80;99.90
37594;DHT22;23441;50.856;6.076;2023-11-21T12:00:55;10.80;99.90
37594;DHT22;23441;50.856;6.076;2023-11-21T12:03:41;10.80;99.90
37594;DHT22;23441;50.856;6.076;2023-11-21T12:06:33;10.80;99.90
37594;DHT22;23441;50.856;6.076;2023-11-21T12:09:21;10.80;99.90
37594;DHT22;23441;50.856;6.076;2023-11-21T12:12:08;10.90;99.90
37594;DHT22;23441;50.856;6.076;2023-11-21T12:14:55;10.90;99.90
37594;DHT22;23441;50.856;6.076;2023-11-21T12:17:44;11.10;99.90
37594;DHT22;23441;50.856;6.076;2023-11-21T12:20:30;10.90;99.90
37594;DHT22;23441;50.856;6.076;2023-11-21T12:23:17;10.80;99.90
37594;DHT22;23441;50.856;6.076;2023-11-21T12:26:03;10.70;99.90
37594;DHT22;23441;50.856;6.076;2023-11-21T12:28:53;10.80;99.90
37594;DHT22;23441;50.856;6.076;2023-11-21T12:31:43;10.80;99.90
37594;DHT22;23441;50.856;6.076;2023-11-21T12:34:31;10.70;99.90
37594;DHT22;23441;50.856;6.076;2023-11-21T12:37:18;10.60;99.90
37594;DHT22;23441;50.856;6.076;2023-11-21T12:40:10;10.40;99.90
37594;DHT22;23441;50.856;6.076;2023-11-21T12:43:01;10.50;99.90
37594;DHT22;23441;50.856;6.076;2023-11-21T12:45:49;10.40;99.90
37594;DHT22;23441;50.856;6.076;2023-11-21T12:48:39;10.30;99.90
37594;DHT22;23441;50.856;6.076;2023-11-21T12:51:28;10.40;99.90
37594;DHT22;23441;50.856;6.076;2023-11-21T12:54:15;10.50;99.90
37594;DHT22;23441;50.856;6.076;2023-11-21T12:57:01;10.50;99.90
37594;DHT22;23441;50.856;6.076;2023-11-21T12:59:49;10.60;99.90
37594;DHT22;23441;50.856;6.076;2023-11-21T13:02:43;10.60;99.90
37594;DHT22;23441;50.856;6.076;2023-11-21T13:05:31;10.70;99.90
37594;DHT22;23441;50.856;6.076;2023-11-21T13:08:17;10.80;99.90
37594;DHT22;23441;50.856;6.076;2023-11-21T13:11:06;10.70;99.90
37594;DHT22;23441;50.856;6.076;2023-11-21T13:13:52;10.70;99.90
37594;DHT22;23441;50.856;6.076;2023-11-21T13:16:39;10.60;99.90
37594;DHT22;23441;50.856;6.076;2023-11-21T13:19:31;10.70;99.90
37594;DHT22;23441;50.856;6.076;2023-11-21T13:22:17;10.70;99.90
37594;DHT22;23441;50.856;6.076;2023-11-21T13:25:04;10.70;99.90
37594;DHT22;23441;50.856;6.076;2023-11-21T13:27:56;10.70;99.90
37594;DHT22;23441;50.856;6.076;2023-11-21T13:30:42;10.70;99.90
37594;DHT22;23441;50.856;6.076;2023-11-21T13:33:30;10.80;99.90
37594;DHT22;23441;50.856;6.076;2023-11-21T13:36:18;10.70;99.90
37594;DHT22;23441;50.856;6.076;2023-11-21T13:39:08;10.60;99.90
37594;DHT22;23441;50.856;6.076;2023-11-21T13:42:01;10.50;99.90
37594;DHT22;23441;50.856;6.076;2023-11-21T13:44:49;10.50;99.90
37594;DHT22;23441;50.856;6.076;2023-11-21T13:47:37;10.40;99.90
37594;DHT22;23441;50.856;6.076;2023-11-21T13:50:26;10.30;99.90
37594;DHT22;23441;50.856;6.076;2023-11-21T13:53:18;10.30;99.90
37594;DHT22;23441;50.856;6.076;2023-11-21T13:56:08;10.30;99.90
37594;DHT22;23441;50.856;6.076;2023-11-21T13:58:54;10.20;99.90
37594;DHT22;23441;50.856;6.076;2023-11-21T14:01:41;10.10;99.90
37594;DHT22;23441;50.856;6.076;2023-11-21T14:04:39;10.20;99.90
37594;DHT22;23441;50.856;6.076;2023-11-21T14:07:46;10.20;99.90
37594;DHT22;23441;50.856;6.076;2023-11-21T14:10:33;10.10;99.90
37594;DHT22;23441;50.856;6.076;2023-11-21T14:13:36;10.20;99.90
37594;DHT22;23441;50.856;6.076;2023-11-21T14:16:22;10.00;99.90
37594;DHT22;23441;50.856;6.076;2023-11-21T14:19:08;9.90;99.90
37594;DHT22;23441;50.856;6.076;2023-11-21T14:22:01;9.90;99.90
37594;DHT22;23441;50.856;6.076;2023-11-21T14:24:47;10.00;99.90
37594;DHT22;23441;50.856;6.076;2023-11-21T14:27:33;10.00;99.90
37594;DHT22;23441;50.856;6.076;2023-11-21T14:30:19;10.00;99.90
37594;DHT22;23441;50.856;6.076;2023-11-21T14:33:08;10.10;99.90
37594;DHT22;23441;50.856;6.076;2023-11-21T14:35:57;10.10;99.90
37594;DHT22;23441;50.856;6.076;2023-11-21T14:38:43;10.10;99.90
37594;DHT22;23441;50.856;6.076;2023-11-21T14:41:29;10.10;99.90
37594;DHT22;23441;50.856;6.076;2023-11-21T14:44:15;10.20;99.90
37594;DHT22;23441;50.856;6.076;2023-11-21T14:47:01;10.20;99.90
37594;DHT22;23441;50.856;6.076;2023-11-21T14:49:51;10.10;99.90
37594;DHT22;23441;50.856;6.076;2023-11-21T14:52:42;10.10;99.90
37594;DHT22;23441;50.856;6.076;2023-11-21T14:55:41;10.00;99.90
37594;DHT22;23441;50.856;6.076;2023-11-21T14:58:36;10.00;99.90
37594;DHT22;23441;50.856;6.076;2023-11-21T15:01:24;10.00;99.90
37594;DHT22;23441;50.856;6.076;2023-11-21T15:04:28;9.90;99.90
37594;DHT22;23441;50.856;6.076;2023-11-21T15:07:24;10.00;99.90
37594;DHT22;23441;50.856;6.076;2023-11-21T15:10:13;9.80;99.90
37594;DHT22;23441;50.856;6.076;2023-11-21T15:13:00;9.90;99.90
37594;DHT22;23441;50.856;6.076;2023-11-21T15:15:48;9.80;99.90
37594;DHT22;23441;50.856;6.076;2023-11-21T15:18:34;9.90;99.90
37594;DHT22;23441;50.856;6.076;2023-11-21T15:21:21;9.80;99.90
37594;DHT22;23441;50.856;6.076;2023-11-21T15:24:08;9.80;99.90
37594;DHT22;23441;50.856;6.076;2023-11-21T15:26:54;9.90;99.90
37594;DHT22;23441;50.856;6.076;2023-11-21T15:29:40;9.80;99.90
37594;DHT22;23441;50.856;6.076;2023-11-21T15:32:26;9.70;99.90
37594;DHT22;23441;50.856;6.076;2023-11-21T15:35:12;9.70;99.90
37594;DHT22;23441;50.856;6.076;2023-11-21T15:38:00;9.80;99.90
37594;DHT22;23441;50.856;6.076;2023-11-21T15:40:47;9.80;99.90
37594;DHT22;23441;50.856;6.076;2023-11-21T15:43:33;9.70;99.90
37594;DHT22;23441;50.856;6.076;2023-11-21T15:46:19;9.70;99.90
37594;DHT22;23441;50.856;6.076;2023-11-21T15:49:05;9.70;99.90
37594;DHT22;23441;50.856;6.076;2023-11-21T15:51:57;9.60;99.90
37594;DHT22;23441;50.856;6.076;2023-11-21T15:54:45;9.60;99.90
37594;DHT22;23441;50.856;6.076;2023-11-21T15:57:33;9.60;99.90
37594;DHT22;23441;50.856;6.076;2023-11-21T16:00:20;9.60;99.90
37594;DHT22;23441;50.856;6.076;2023-11-21T16:03:08;9.60;99.90
37594;DHT22;23441;50.856;6.076;2023-11-21T16:05:55;9.60;99.90
37594;DHT22;23441;50.856;6.076;2023-11-21T16:08:41;9.60;99.90
37594;DHT22;23441;50.856;6.076;2023-11-21T16:11:27;9.60;99.90
37594;DHT22;23441;50.856;6.076;2023-11-21T16:14:15;9.60;99.90
37594;DHT22;23441;50.856;6.076;2023-11-21T16:17:05;9.50;99.90
37594;DHT22;23441;50.856;6.076;2023-11-21T16:19:54;9.50;99.90
37594;DHT22;23441;50.856;6.076;2023-11-21T16:22:41;9.50;99.90
37594;DHT22;23441;50.856;6.076;2023-11-21T16:25:27;9.50;99.90
37594;DHT22;23441;50.856;6.076;2023-11-21T16:28:13;9.50;99.90
37594;DHT22;23441;50.856;6.076;2023-11-21T16:30:59;9.50;99.90
37594;DHT22;23441;50.856;6.076;2023-11-21T16:33:45;9.50;99.90
37594;DHT22;23441;50.856;6.076;2023-11-21T16:36:31;9.50;99.90
37594;DHT22;23441;50.856;6.076;2023-11-21T16:39:18;9.50;99.90
37594;DHT22;23441;50.856;6.076;2023-11-21T16:42:07;9.50;99.90
37594;DHT22;23441;50.856;6.076;2023-11-21T16:44:53;9.50;99.90
37594;DHT22;23441;50.856;6.076;2023-11-21T16:47:42;9.50;99.90
37594;DHT22;23441;50.856;6.076;2023-11-21T16:50:28;9.40;99.90
37594;DHT22;23441;50.856;6.076;2023-11-21T16:53:14;9.40;99.90
37594;DHT22;23441;50.856;6.076;2023-11-21T16:56:00;9.40;99.90
37594;DHT22;23441;50.856;6.076;2023-11-21T16:58:46;9.40;99.90
37594;DHT22;23441;50.856;6.076;2023-11-21T17:01:32;9.40;99.90
37594;DHT22;23441;50.856;6.076;2023-11-21T17:04:19;9.40;99.90
37594;DHT22;23441;50.856;6.076;2023-11-21T17:07:05;9.40;99.90
37594;DHT22;23441;50.856;6.076;2023-11-21T17:09:52;9.40;99.90
37594;DHT22;23441;50.856;6.076;2023-11-21T17:12:38;9.30;99.90
37594;DHT22;23441;50.856;6.076;2023-11-21T17:15:24;9.30;99.90
37594;DHT22;23441;50.856;6.076;2023-11-21T17:18:10;9.20;99.90
37594;DHT22;23441;50.856;6.076;2023-11-21T17:20:56;9.20;99.90
37594;DHT22;23441;50.856;6.076;2023-11-21T17:23:42;9.20;99.90
37594;DHT22;23441;50.856;6.076;2023-11-21T17:26:28;9.20;99.90
37594;DHT22;23441;50.856;6.076;2023-11-21T17:29:16;9.20;99.90
37594;DHT22;23441;50.856;6.076;2023-11-21T17:32:03;9.20;99.90
37594;DHT22;23441;50.856;6.076;2023-11-21T17:34:50;9.20;99.90
37594;DHT22;23441;50.856;6.076;2023-11-21T17:37:36;9.10;99.90
37594;DHT22;23441;50.856;6.076;2023-11-21T17:40:22;9.10;99.90
37594;DHT22;23441;50.856;6.076;2023-11-21T17:43:08;9.10;99.90
37594;DHT22;23441;50.856;6.076;2023-11-21T17:45:56;9.10;99.90
37594;DHT22;23441;50.856;6.076;2023-11-21T17:48:42;9.00;99.90
37594;DHT22;23441;50.856;6.076;2023-11-21T17:51:28;8.90;99.90
37594;DHT22;23441;50.856;6.076;2023-11-21T17:54:14;8.90;99.90
37594;DHT22;23441;50.856;6.076;2023-11-21T17:56:59;8.90;99.90